<?xml version="1.0" encoding="UTF-8" standalone="no" ?>
<gpx xmlns="http://www.topografix.com/GPX/1/1" xmlns:xsi="http://www.w3.org/2001/XMLSchema-instance" xsi:schemaLocation="http://www.topografix.com/GPX/1/1 http://www.topografix.com/GPX/1/1/gpx.xsd" version="1.1" creator="VisuGPX - https://www.visugpx.com">
  <metadata>
    <name>Germond</name>
    <desc><![CDATA[Regroupement de plusieurs circuits]]></desc>
  </metadata>
  <trk>
    <name><![CDATA[Trace 41]]></name>
    <extensions>
      <line xmlns="http://www.topografix.com/GPX/gpx_style/0/2">
        <color>0011ff</color>
        <width>4</width>
      </line>
    </extensions>
    <trkseg>
      <trkpt lat="46.45566" lon="-0.42041">
        <ele>102</ele>
        <time>2021-09-28T12:38:59Z</time>
      </trkpt>
      <trkpt lat="46.45586" lon="-0.42019">
        <ele>102</ele>
        <time>2021-09-28T12:39:12Z</time>
      </trkpt>
      <trkpt lat="46.45559" lon="-0.41936">
        <ele>102</ele>
        <time>2021-09-28T12:39:43Z</time>
      </trkpt>
      <trkpt lat="46.45568" lon="-0.41932">
        <ele>102</ele>
        <time>2021-09-28T12:39:48Z</time>
      </trkpt>
      <trkpt lat="46.45584" lon="-0.4192">
        <ele>102</ele>
        <time>2021-09-28T12:39:57Z</time>
      </trkpt>
      <trkpt lat="46.45579" lon="-0.41903">
        <ele>102</ele>
        <time>2021-09-28T12:40:03Z</time>
      </trkpt>
      <trkpt lat="46.45555" lon="-0.41854">
        <ele>103</ele>
        <time>2021-09-28T12:40:24Z</time>
      </trkpt>
      <trkpt lat="46.45543" lon="-0.41834">
        <ele>103</ele>
        <time>2021-09-28T12:40:33Z</time>
      </trkpt>
      <trkpt lat="46.45519" lon="-0.41804">
        <ele>102</ele>
        <time>2021-09-28T12:40:49Z</time>
      </trkpt>
      <trkpt lat="46.45505" lon="-0.4179">
        <ele>102</ele>
        <time>2021-09-28T12:40:58Z</time>
      </trkpt>
      <trkpt lat="46.45444" lon="-0.41743">
        <ele>98</ele>
        <time>2021-09-28T12:41:32Z</time>
      </trkpt>
      <trkpt lat="46.45365" lon="-0.41652">
        <ele>91</ele>
        <time>2021-09-28T12:42:23Z</time>
      </trkpt>
      <trkpt lat="46.45347" lon="-0.41636">
        <ele>89</ele>
        <time>2021-09-28T12:42:33Z</time>
      </trkpt>
      <trkpt lat="46.45382" lon="-0.41554">
        <ele>89</ele>
        <time>2021-09-28T12:43:06Z</time>
      </trkpt>
      <trkpt lat="46.45315" lon="-0.41465">
        <ele>81</ele>
        <time>2021-09-28T12:43:52Z</time>
      </trkpt>
      <trkpt lat="46.45291" lon="-0.41458">
        <ele>78</ele>
        <time>2021-09-28T12:44:04Z</time>
      </trkpt>
      <trkpt lat="46.45288" lon="-0.41282">
        <ele>74</ele>
        <time>2021-09-28T12:45:05Z</time>
      </trkpt>
      <trkpt lat="46.45251" lon="-0.41174">
        <ele>78</ele>
        <time>2021-09-28T12:45:46Z</time>
      </trkpt>
      <trkpt lat="46.45244" lon="-0.41066">
        <ele>84</ele>
        <time>2021-09-28T12:46:24Z</time>
      </trkpt>
      <trkpt lat="46.45152" lon="-0.40963">
        <ele>95</ele>
        <time>2021-09-28T12:47:22Z</time>
      </trkpt>
      <trkpt lat="46.45035" lon="-0.40833">
        <ele>101</ele>
        <time>2021-09-28T12:48:36Z</time>
      </trkpt>
      <trkpt lat="46.44966" lon="-0.40742">
        <ele>103</ele>
        <time>2021-09-28T12:49:22Z</time>
      </trkpt>
      <trkpt lat="46.44946" lon="-0.40713">
        <ele>103</ele>
        <time>2021-09-28T12:49:36Z</time>
      </trkpt>
      <trkpt lat="46.449" lon="-0.40631">
        <ele>103</ele>
        <time>2021-09-28T12:50:13Z</time>
      </trkpt>
      <trkpt lat="46.44868" lon="-0.40563">
        <ele>102</ele>
        <time>2021-09-28T12:50:41Z</time>
      </trkpt>
      <trkpt lat="46.44852" lon="-0.40522">
        <ele>103</ele>
        <time>2021-09-28T12:50:58Z</time>
      </trkpt>
      <trkpt lat="46.44839" lon="-0.4048">
        <ele>103</ele>
        <time>2021-09-28T12:51:13Z</time>
      </trkpt>
      <trkpt lat="46.44827" lon="-0.40429">
        <ele>103</ele>
        <time>2021-09-28T12:51:32Z</time>
      </trkpt>
      <trkpt lat="46.44813" lon="-0.40348">
        <ele>104</ele>
        <time>2021-09-28T12:52:01Z</time>
      </trkpt>
      <trkpt lat="46.44806" lon="-0.40292">
        <ele>104</ele>
        <time>2021-09-28T12:52:20Z</time>
      </trkpt>
      <trkpt lat="46.44803" lon="-0.40184">
        <ele>105</ele>
        <time>2021-09-28T12:52:58Z</time>
      </trkpt>
      <trkpt lat="46.44804" lon="-0.4008">
        <ele>105</ele>
        <time>2021-09-28T12:53:34Z</time>
      </trkpt>
      <trkpt lat="46.44746" lon="-0.39887">
        <ele>102</ele>
        <time>2021-09-28T12:54:46Z</time>
      </trkpt>
      <trkpt lat="46.4483" lon="-0.3982">
        <ele>101</ele>
        <time>2021-09-28T12:55:34Z</time>
      </trkpt>
      <trkpt lat="46.44799" lon="-0.39739">
        <ele>101</ele>
        <time>2021-09-28T12:56:06Z</time>
      </trkpt>
      <trkpt lat="46.44785" lon="-0.39705">
        <ele>101</ele>
        <time>2021-09-28T12:56:20Z</time>
      </trkpt>
      <trkpt lat="46.44757" lon="-0.39674">
        <ele>102</ele>
        <time>2021-09-28T12:56:37Z</time>
      </trkpt>
      <trkpt lat="46.44546" lon="-0.39507">
        <ele>106</ele>
        <time>2021-09-28T12:58:38Z</time>
      </trkpt>
      <trkpt lat="46.44504" lon="-0.39471">
        <ele>106</ele>
        <time>2021-09-28T12:59:02Z</time>
      </trkpt>
      <trkpt lat="46.44496" lon="-0.39478">
        <ele>106</ele>
        <time>2021-09-28T12:59:07Z</time>
      </trkpt>
      <trkpt lat="46.4445" lon="-0.39512">
        <ele>107</ele>
        <time>2021-09-28T12:59:33Z</time>
      </trkpt>
      <trkpt lat="46.4438" lon="-0.39555">
        <ele>108</ele>
        <time>2021-09-28T13:00:11Z</time>
      </trkpt>
      <trkpt lat="46.442" lon="-0.3965">
        <ele>107</ele>
        <time>2021-09-28T13:01:46Z</time>
      </trkpt>
      <trkpt lat="46.44125" lon="-0.39672">
        <ele>105</ele>
        <time>2021-09-28T13:02:25Z</time>
      </trkpt>
      <trkpt lat="46.44035" lon="-0.39637">
        <ele>103</ele>
        <time>2021-09-28T13:03:11Z</time>
      </trkpt>
      <trkpt lat="46.43989" lon="-0.39589">
        <ele>102</ele>
        <time>2021-09-28T13:03:40Z</time>
      </trkpt>
      <trkpt lat="46.43948" lon="-0.39518">
        <ele>102</ele>
        <time>2021-09-28T13:04:12Z</time>
      </trkpt>
      <trkpt lat="46.43894" lon="-0.39581">
        <ele>103</ele>
        <time>2021-09-28T13:04:46Z</time>
      </trkpt>
      <trkpt lat="46.43773" lon="-0.39711">
        <ele>104</ele>
        <time>2021-09-28T13:06:02Z</time>
      </trkpt>
      <trkpt lat="46.43649" lon="-0.3987">
        <ele>101</ele>
        <time>2021-09-28T13:07:24Z</time>
      </trkpt>
      <trkpt lat="46.43544" lon="-0.39981">
        <ele>100</ele>
        <time>2021-09-28T13:08:29Z</time>
      </trkpt>
      <trkpt lat="46.43427" lon="-0.40119">
        <ele>99</ele>
        <time>2021-09-28T13:09:45Z</time>
      </trkpt>
      <trkpt lat="46.43347" lon="-0.40213">
        <ele>97</ele>
        <time>2021-09-28T13:10:36Z</time>
      </trkpt>
      <trkpt lat="46.43267" lon="-0.40331">
        <ele>94</ele>
        <time>2021-09-28T13:11:34Z</time>
      </trkpt>
      <trkpt lat="46.43255" lon="-0.40354">
        <ele>94</ele>
        <time>2021-09-28T13:11:43Z</time>
      </trkpt>
      <trkpt lat="46.43291" lon="-0.40396">
        <ele>95</ele>
        <time>2021-09-28T13:12:07Z</time>
      </trkpt>
      <trkpt lat="46.43312" lon="-0.40445">
        <ele>93</ele>
        <time>2021-09-28T13:12:26Z</time>
      </trkpt>
      <trkpt lat="46.43162" lon="-0.40446">
        <ele>92</ele>
        <time>2021-09-28T13:13:42Z</time>
      </trkpt>
      <trkpt lat="46.43162" lon="-0.40472">
        <ele>92</ele>
        <time>2021-09-28T13:13:51Z</time>
      </trkpt>
      <trkpt lat="46.43129" lon="-0.40475">
        <ele>91</ele>
        <time>2021-09-28T13:14:07Z</time>
      </trkpt>
      <trkpt lat="46.43047" lon="-0.40564">
        <ele>91</ele>
        <time>2021-09-28T13:14:58Z</time>
      </trkpt>
      <trkpt lat="46.43005" lon="-0.40604">
        <ele>91</ele>
        <time>2021-09-28T13:15:23Z</time>
      </trkpt>
      <trkpt lat="46.43021" lon="-0.40686">
        <ele>90</ele>
        <time>2021-09-28T13:15:53Z</time>
      </trkpt>
      <trkpt lat="46.43062" lon="-0.40817">
        <ele>84</ele>
        <time>2021-09-28T13:16:42Z</time>
      </trkpt>
      <trkpt lat="46.4313" lon="-0.40992">
        <ele>82</ele>
        <time>2021-09-28T13:17:52Z</time>
      </trkpt>
      <trkpt lat="46.43148" lon="-0.41038">
        <ele>84</ele>
        <time>2021-09-28T13:18:10Z</time>
      </trkpt>
      <trkpt lat="46.43157" lon="-0.41065">
        <ele>85</ele>
        <time>2021-09-28T13:18:20Z</time>
      </trkpt>
      <trkpt lat="46.43199" lon="-0.41234">
        <ele>90</ele>
        <time>2021-09-28T13:19:22Z</time>
      </trkpt>
      <trkpt lat="46.43236" lon="-0.41326">
        <ele>91</ele>
        <time>2021-09-28T13:19:59Z</time>
      </trkpt>
      <trkpt lat="46.433" lon="-0.41443">
        <ele>91</ele>
        <time>2021-09-28T13:20:51Z</time>
      </trkpt>
      <trkpt lat="46.43358" lon="-0.41526">
        <ele>91</ele>
        <time>2021-09-28T13:21:31Z</time>
      </trkpt>
      <trkpt lat="46.43455" lon="-0.41671">
        <ele>89</ele>
        <time>2021-09-28T13:22:41Z</time>
      </trkpt>
      <trkpt lat="46.43437" lon="-0.41701">
        <ele>89</ele>
        <time>2021-09-28T13:22:55Z</time>
      </trkpt>
      <trkpt lat="46.43555" lon="-0.41849">
        <ele>91</ele>
        <time>2021-09-28T13:24:13Z</time>
      </trkpt>
      <trkpt lat="46.43634" lon="-0.4197">
        <ele>92</ele>
        <time>2021-09-28T13:25:10Z</time>
      </trkpt>
      <trkpt lat="46.43741" lon="-0.42156">
        <ele>93</ele>
        <time>2021-09-28T13:26:34Z</time>
      </trkpt>
      <trkpt lat="46.43852" lon="-0.42312">
        <ele>89</ele>
        <time>2021-09-28T13:27:51Z</time>
      </trkpt>
      <trkpt lat="46.43874" lon="-0.42333">
        <ele>88</ele>
        <time>2021-09-28T13:28:04Z</time>
      </trkpt>
      <trkpt lat="46.44105" lon="-0.42244">
        <ele>84</ele>
        <time>2021-09-28T13:30:04Z</time>
      </trkpt>
      <trkpt lat="46.44205" lon="-0.42173">
        <ele>81</ele>
        <time>2021-09-28T13:31:00Z</time>
      </trkpt>
      <trkpt lat="46.44236" lon="-0.421">
        <ele>81</ele>
        <time>2021-09-28T13:31:29Z</time>
      </trkpt>
      <trkpt lat="46.44135" lon="-0.42027">
        <ele>85</ele>
        <time>2021-09-28T13:32:26Z</time>
      </trkpt>
      <trkpt lat="46.44128" lon="-0.41997">
        <ele>86</ele>
        <time>2021-09-28T13:32:37Z</time>
      </trkpt>
      <trkpt lat="46.44149" lon="-0.4195">
        <ele>88</ele>
        <time>2021-09-28T13:32:56Z</time>
      </trkpt>
      <trkpt lat="46.44168" lon="-0.41894">
        <ele>91</ele>
        <time>2021-09-28T13:33:17Z</time>
      </trkpt>
      <trkpt lat="46.4419" lon="-0.4179">
        <ele>91</ele>
        <time>2021-09-28T13:33:55Z</time>
      </trkpt>
      <trkpt lat="46.442" lon="-0.41756">
        <ele>91</ele>
        <time>2021-09-28T13:34:08Z</time>
      </trkpt>
      <trkpt lat="46.44212" lon="-0.41728">
        <ele>90</ele>
        <time>2021-09-28T13:34:19Z</time>
      </trkpt>
      <trkpt lat="46.4424" lon="-0.41682">
        <ele>89</ele>
        <time>2021-09-28T13:34:40Z</time>
      </trkpt>
      <trkpt lat="46.44272" lon="-0.41614">
        <ele>89</ele>
        <time>2021-09-28T13:35:09Z</time>
      </trkpt>
      <trkpt lat="46.44236" lon="-0.41556">
        <ele>91</ele>
        <time>2021-09-28T13:35:36Z</time>
      </trkpt>
      <trkpt lat="46.44335" lon="-0.41403">
        <ele>94</ele>
        <time>2021-09-28T13:36:48Z</time>
      </trkpt>
      <trkpt lat="46.44359" lon="-0.41359">
        <ele>95</ele>
        <time>2021-09-28T13:37:07Z</time>
      </trkpt>
      <trkpt lat="46.44449" lon="-0.41409">
        <ele>91</ele>
        <time>2021-09-28T13:37:56Z</time>
      </trkpt>
      <trkpt lat="46.44499" lon="-0.41373">
        <ele>93</ele>
        <time>2021-09-28T13:38:23Z</time>
      </trkpt>
      <trkpt lat="46.44537" lon="-0.41393">
        <ele>92</ele>
        <time>2021-09-28T13:38:44Z</time>
      </trkpt>
      <trkpt lat="46.44626" lon="-0.4142">
        <ele>92</ele>
        <time>2021-09-28T13:39:29Z</time>
      </trkpt>
      <trkpt lat="46.44698" lon="-0.41433">
        <ele>93</ele>
        <time>2021-09-28T13:40:05Z</time>
      </trkpt>
      <trkpt lat="46.44743" lon="-0.41467">
        <ele>92</ele>
        <time>2021-09-28T13:40:31Z</time>
      </trkpt>
      <trkpt lat="46.44807" lon="-0.41585">
        <ele>87</ele>
        <time>2021-09-28T13:41:23Z</time>
      </trkpt>
      <trkpt lat="46.44859" lon="-0.41676">
        <ele>80</ele>
        <time>2021-09-28T13:42:03Z</time>
      </trkpt>
      <trkpt lat="46.44892" lon="-0.41724">
        <ele>76</ele>
        <time>2021-09-28T13:42:27Z</time>
      </trkpt>
      <trkpt lat="46.44903" lon="-0.41754">
        <ele>74</ele>
        <time>2021-09-28T13:42:39Z</time>
      </trkpt>
      <trkpt lat="46.44926" lon="-0.41797">
        <ele>70</ele>
        <time>2021-09-28T13:42:57Z</time>
      </trkpt>
      <trkpt lat="46.44953" lon="-0.41817">
        <ele>68</ele>
        <time>2021-09-28T13:43:12Z</time>
      </trkpt>
      <trkpt lat="46.45016" lon="-0.41806">
        <ele>68</ele>
        <time>2021-09-28T13:43:44Z</time>
      </trkpt>
      <trkpt lat="46.45049" lon="-0.41821">
        <ele>68</ele>
        <time>2021-09-28T13:44:02Z</time>
      </trkpt>
      <trkpt lat="46.45073" lon="-0.41862">
        <ele>71</ele>
        <time>2021-09-28T13:44:20Z</time>
      </trkpt>
      <trkpt lat="46.45067" lon="-0.41927">
        <ele>76</ele>
        <time>2021-09-28T13:44:43Z</time>
      </trkpt>
      <trkpt lat="46.45057" lon="-0.41955">
        <ele>78</ele>
        <time>2021-09-28T13:44:54Z</time>
      </trkpt>
      <trkpt lat="46.45032" lon="-0.41994">
        <ele>81</ele>
        <time>2021-09-28T13:45:12Z</time>
      </trkpt>
      <trkpt lat="46.45028" lon="-0.42025">
        <ele>83</ele>
        <time>2021-09-28T13:45:23Z</time>
      </trkpt>
      <trkpt lat="46.45048" lon="-0.42091">
        <ele>89</ele>
        <time>2021-09-28T13:45:48Z</time>
      </trkpt>
      <trkpt lat="46.4505" lon="-0.42133">
        <ele>91</ele>
        <time>2021-09-28T13:46:02Z</time>
      </trkpt>
      <trkpt lat="46.4504" lon="-0.42198">
        <ele>92</ele>
        <time>2021-09-28T13:46:25Z</time>
      </trkpt>
      <trkpt lat="46.45045" lon="-0.42255">
        <ele>92</ele>
        <time>2021-09-28T13:46:45Z</time>
      </trkpt>
      <trkpt lat="46.45057" lon="-0.42281">
        <ele>92</ele>
        <time>2021-09-28T13:46:56Z</time>
      </trkpt>
      <trkpt lat="46.45085" lon="-0.42306">
        <ele>92</ele>
        <time>2021-09-28T13:47:12Z</time>
      </trkpt>
      <trkpt lat="46.45201" lon="-0.42397">
        <ele>89</ele>
        <time>2021-09-28T13:48:18Z</time>
      </trkpt>
      <trkpt lat="46.45322" lon="-0.42314">
        <ele>91</ele>
        <time>2021-09-28T13:49:25Z</time>
      </trkpt>
      <trkpt lat="46.45411" lon="-0.42538">
        <ele>100</ele>
        <time>2021-09-28T13:50:54Z</time>
      </trkpt>
      <trkpt lat="46.45437" lon="-0.42545">
        <ele>101</ele>
        <time>2021-09-28T13:51:08Z</time>
      </trkpt>
      <trkpt lat="46.4547" lon="-0.42523">
        <ele>102</ele>
        <time>2021-09-28T13:51:26Z</time>
      </trkpt>
      <trkpt lat="46.45483" lon="-0.42497">
        <ele>103</ele>
        <time>2021-09-28T13:51:37Z</time>
      </trkpt>
      <trkpt lat="46.45514" lon="-0.42521">
        <ele>104</ele>
        <time>2021-09-28T13:51:54Z</time>
      </trkpt>
      <trkpt lat="46.45501" lon="-0.42633">
        <ele>101</ele>
        <time>2021-09-28T13:52:33Z</time>
      </trkpt>
      <trkpt lat="46.45493" lon="-0.42694">
        <ele>99</ele>
        <time>2021-09-28T13:52:55Z</time>
      </trkpt>
      <trkpt lat="46.45511" lon="-0.42767">
        <ele>95</ele>
        <time>2021-09-28T13:53:22Z</time>
      </trkpt>
      <trkpt lat="46.45512" lon="-0.42845">
        <ele>89</ele>
        <time>2021-09-28T13:53:49Z</time>
      </trkpt>
      <trkpt lat="46.45536" lon="-0.42943">
        <ele>86</ele>
        <time>2021-09-28T13:54:24Z</time>
      </trkpt>
      <trkpt lat="46.45596" lon="-0.42904">
        <ele>88</ele>
        <time>2021-09-28T13:54:57Z</time>
      </trkpt>
      <trkpt lat="46.45635" lon="-0.42794">
        <ele>94</ele>
        <time>2021-09-28T13:55:40Z</time>
      </trkpt>
      <trkpt lat="46.45674" lon="-0.4274">
        <ele>97</ele>
        <time>2021-09-28T13:56:07Z</time>
      </trkpt>
      <trkpt lat="46.45687" lon="-0.42775">
        <ele>96</ele>
        <time>2021-09-28T13:56:21Z</time>
      </trkpt>
      <trkpt lat="46.45697" lon="-0.42852">
        <ele>96</ele>
        <time>2021-09-28T13:56:48Z</time>
      </trkpt>
      <trkpt lat="46.45673" lon="-0.42943">
        <ele>92</ele>
        <time>2021-09-28T13:57:21Z</time>
      </trkpt>
      <trkpt lat="46.45665" lon="-0.43018">
        <ele>89</ele>
        <time>2021-09-28T13:57:47Z</time>
      </trkpt>
      <trkpt lat="46.45667" lon="-0.43121">
        <ele>84</ele>
        <time>2021-09-28T13:58:23Z</time>
      </trkpt>
      <trkpt lat="46.45684" lon="-0.43181">
        <ele>79</ele>
        <time>2021-09-28T13:58:45Z</time>
      </trkpt>
      <trkpt lat="46.45697" lon="-0.43196">
        <ele>77</ele>
        <time>2021-09-28T13:58:54Z</time>
      </trkpt>
      <trkpt lat="46.45723" lon="-0.432">
        <ele>74</ele>
        <time>2021-09-28T13:59:07Z</time>
      </trkpt>
      <trkpt lat="46.45727" lon="-0.43244">
        <ele>67</ele>
        <time>2021-09-28T13:59:22Z</time>
      </trkpt>
      <trkpt lat="46.45691" lon="-0.43289">
        <ele>64</ele>
        <time>2021-09-28T13:59:46Z</time>
      </trkpt>
      <trkpt lat="46.45679" lon="-0.43435">
        <ele>47</ele>
        <time>2021-09-28T14:00:36Z</time>
      </trkpt>
      <trkpt lat="46.45701" lon="-0.43427">
        <ele>47</ele>
        <time>2021-09-28T14:00:48Z</time>
      </trkpt>
      <trkpt lat="46.45726" lon="-0.43411">
        <ele>48</ele>
        <time>2021-09-28T14:01:01Z</time>
      </trkpt>
      <trkpt lat="46.45754" lon="-0.43344">
        <ele>52</ele>
        <time>2021-09-28T14:01:28Z</time>
      </trkpt>
      <trkpt lat="46.45797" lon="-0.43321">
        <ele>51</ele>
        <time>2021-09-28T14:01:51Z</time>
      </trkpt>
      <trkpt lat="46.4591" lon="-0.43307">
        <ele>49</ele>
        <time>2021-09-28T14:02:48Z</time>
      </trkpt>
      <trkpt lat="46.45975" lon="-0.43286">
        <ele>48</ele>
        <time>2021-09-28T14:03:21Z</time>
      </trkpt>
      <trkpt lat="46.46026" lon="-0.43477">
        <ele>51</ele>
        <time>2021-09-28T14:04:32Z</time>
      </trkpt>
      <trkpt lat="46.4612" lon="-0.43434">
        <ele>53</ele>
        <time>2021-09-28T14:05:21Z</time>
      </trkpt>
      <trkpt lat="46.46167" lon="-0.43463">
        <ele>55</ele>
        <time>2021-09-28T14:05:47Z</time>
      </trkpt>
      <trkpt lat="46.46153" lon="-0.4351">
        <ele>56</ele>
        <time>2021-09-28T14:06:05Z</time>
      </trkpt>
      <trkpt lat="46.4617" lon="-0.43619">
        <ele>57</ele>
        <time>2021-09-28T14:06:43Z</time>
      </trkpt>
      <trkpt lat="46.46212" lon="-0.43729">
        <ele>64</ele>
        <time>2021-09-28T14:07:26Z</time>
      </trkpt>
      <trkpt lat="46.46232" lon="-0.43766">
        <ele>65</ele>
        <time>2021-09-28T14:07:43Z</time>
      </trkpt>
      <trkpt lat="46.4625" lon="-0.43802">
        <ele>66</ele>
        <time>2021-09-28T14:07:58Z</time>
      </trkpt>
      <trkpt lat="46.46246" lon="-0.43828">
        <ele>69</ele>
        <time>2021-09-28T14:08:07Z</time>
      </trkpt>
      <trkpt lat="46.46229" lon="-0.43877">
        <ele>78</ele>
        <time>2021-09-28T14:08:26Z</time>
      </trkpt>
      <trkpt lat="46.46257" lon="-0.43931">
        <ele>80</ele>
        <time>2021-09-28T14:08:49Z</time>
      </trkpt>
      <trkpt lat="46.46321" lon="-0.43933">
        <ele>82</ele>
        <time>2021-09-28T14:09:21Z</time>
      </trkpt>
      <trkpt lat="46.46332" lon="-0.43919">
        <ele>80</ele>
        <time>2021-09-28T14:09:29Z</time>
      </trkpt>
      <trkpt lat="46.46365" lon="-0.43926">
        <ele>83</ele>
        <time>2021-09-28T14:09:45Z</time>
      </trkpt>
      <trkpt lat="46.46385" lon="-0.43921">
        <ele>84</ele>
        <time>2021-09-28T14:09:56Z</time>
      </trkpt>
      <trkpt lat="46.46416" lon="-0.43938">
        <ele>87</ele>
        <time>2021-09-28T14:10:12Z</time>
      </trkpt>
      <trkpt lat="46.46485" lon="-0.43973">
        <ele>90</ele>
        <time>2021-09-28T14:10:49Z</time>
      </trkpt>
      <trkpt lat="46.46562" lon="-0.43982">
        <ele>91</ele>
        <time>2021-09-28T14:11:27Z</time>
      </trkpt>
      <trkpt lat="46.46692" lon="-0.44014">
        <ele>92</ele>
        <time>2021-09-28T14:12:33Z</time>
      </trkpt>
      <trkpt lat="46.4678" lon="-0.44072">
        <ele>94</ele>
        <time>2021-09-28T14:13:22Z</time>
      </trkpt>
      <trkpt lat="46.46852" lon="-0.44143">
        <ele>97</ele>
        <time>2021-09-28T14:14:05Z</time>
      </trkpt>
      <trkpt lat="46.4682" lon="-0.44223">
        <ele>100</ele>
        <time>2021-09-28T14:14:37Z</time>
      </trkpt>
      <trkpt lat="46.46786" lon="-0.44313">
        <ele>98</ele>
        <time>2021-09-28T14:15:13Z</time>
      </trkpt>
      <trkpt lat="46.46962" lon="-0.44407">
        <ele>103</ele>
        <time>2021-09-28T14:16:46Z</time>
      </trkpt>
      <trkpt lat="46.46957" lon="-0.44492">
        <ele>103</ele>
        <time>2021-09-28T14:17:16Z</time>
      </trkpt>
      <trkpt lat="46.46959" lon="-0.44529">
        <ele>104</ele>
        <time>2021-09-28T14:17:29Z</time>
      </trkpt>
      <trkpt lat="46.4698" lon="-0.44611">
        <ele>103</ele>
        <time>2021-09-28T14:17:59Z</time>
      </trkpt>
      <trkpt lat="46.47065" lon="-0.44602">
        <ele>99</ele>
        <time>2021-09-28T14:18:41Z</time>
      </trkpt>
      <trkpt lat="46.47131" lon="-0.44738">
        <ele>92</ele>
        <time>2021-09-28T14:19:39Z</time>
      </trkpt>
      <trkpt lat="46.47135" lon="-0.44737">
        <ele>92</ele>
        <time>2021-09-28T14:19:41Z</time>
      </trkpt>
      <trkpt lat="46.47259" lon="-0.44626">
        <ele>81</ele>
        <time>2021-09-28T14:20:54Z</time>
      </trkpt>
      <trkpt lat="46.47299" lon="-0.44542">
        <ele>78</ele>
        <time>2021-09-28T14:21:29Z</time>
      </trkpt>
      <trkpt lat="46.47349" lon="-0.44416">
        <ele>77</ele>
        <time>2021-09-28T14:22:19Z</time>
      </trkpt>
      <trkpt lat="46.47356" lon="-0.44365">
        <ele>77</ele>
        <time>2021-09-28T14:22:37Z</time>
      </trkpt>
      <trkpt lat="46.47391" lon="-0.44297">
        <ele>79</ele>
        <time>2021-09-28T14:23:06Z</time>
      </trkpt>
      <trkpt lat="46.47573" lon="-0.44396">
        <ele>97</ele>
        <time>2021-09-28T14:24:43Z</time>
      </trkpt>
      <trkpt lat="46.47575" lon="-0.44442">
        <ele>100</ele>
        <time>2021-09-28T14:24:59Z</time>
      </trkpt>
      <trkpt lat="46.47617" lon="-0.4451">
        <ele>104</ele>
        <time>2021-09-28T14:25:31Z</time>
      </trkpt>
      <trkpt lat="46.47652" lon="-0.44602">
        <ele>103</ele>
        <time>2021-09-28T14:26:07Z</time>
      </trkpt>
      <trkpt lat="46.4775" lon="-0.44654">
        <ele>106</ele>
        <time>2021-09-28T14:26:59Z</time>
      </trkpt>
      <trkpt lat="46.47809" lon="-0.44812">
        <ele>107</ele>
        <time>2021-09-28T14:28:01Z</time>
      </trkpt>
      <trkpt lat="46.47839" lon="-0.44941">
        <ele>110</ele>
        <time>2021-09-28T14:28:48Z</time>
      </trkpt>
      <trkpt lat="46.47874" lon="-0.45044">
        <ele>108</ele>
        <time>2021-09-28T14:29:28Z</time>
      </trkpt>
      <trkpt lat="46.47921" lon="-0.45007">
        <ele>112</ele>
        <time>2021-09-28T14:29:54Z</time>
      </trkpt>
      <trkpt lat="46.47946" lon="-0.45004">
        <ele>114</ele>
        <time>2021-09-28T14:30:07Z</time>
      </trkpt>
      <trkpt lat="46.47988" lon="-0.4504">
        <ele>114</ele>
        <time>2021-09-28T14:30:31Z</time>
      </trkpt>
      <trkpt lat="46.48042" lon="-0.45058">
        <ele>115</ele>
        <time>2021-09-28T14:30:59Z</time>
      </trkpt>
      <trkpt lat="46.48076" lon="-0.4505">
        <ele>118</ele>
        <time>2021-09-28T14:31:16Z</time>
      </trkpt>
      <trkpt lat="46.48111" lon="-0.45031">
        <ele>120</ele>
        <time>2021-09-28T14:31:35Z</time>
      </trkpt>
      <trkpt lat="46.48187" lon="-0.44968">
        <ele>121</ele>
        <time>2021-09-28T14:32:19Z</time>
      </trkpt>
      <trkpt lat="46.48257" lon="-0.44935">
        <ele>118</ele>
        <time>2021-09-28T14:32:56Z</time>
      </trkpt>
      <trkpt lat="46.48279" lon="-0.44871">
        <ele>115</ele>
        <time>2021-09-28T14:33:20Z</time>
      </trkpt>
      <trkpt lat="46.48286" lon="-0.44837">
        <ele>114</ele>
        <time>2021-09-28T14:33:33Z</time>
      </trkpt>
      <trkpt lat="46.48322" lon="-0.44814">
        <ele>118</ele>
        <time>2021-09-28T14:33:52Z</time>
      </trkpt>
      <trkpt lat="46.48322" lon="-0.44853">
        <ele>119</ele>
        <time>2021-09-28T14:34:06Z</time>
      </trkpt>
      <trkpt lat="46.4836" lon="-0.44837">
        <ele>121</ele>
        <time>2021-09-28T14:34:26Z</time>
      </trkpt>
      <trkpt lat="46.48397" lon="-0.44778">
        <ele>120</ele>
        <time>2021-09-28T14:34:53Z</time>
      </trkpt>
      <trkpt lat="46.48375" lon="-0.44735">
        <ele>118</ele>
        <time>2021-09-28T14:35:11Z</time>
      </trkpt>
      <trkpt lat="46.48314" lon="-0.4462">
        <ele>105</ele>
        <time>2021-09-28T14:36:01Z</time>
      </trkpt>
      <trkpt lat="46.48313" lon="-0.44536">
        <ele>99</ele>
        <time>2021-09-28T14:36:30Z</time>
      </trkpt>
      <trkpt lat="46.48292" lon="-0.44443">
        <ele>94</ele>
        <time>2021-09-28T14:37:04Z</time>
      </trkpt>
      <trkpt lat="46.48272" lon="-0.4437">
        <ele>93</ele>
        <time>2021-09-28T14:37:31Z</time>
      </trkpt>
      <trkpt lat="46.48273" lon="-0.44106">
        <ele>94</ele>
        <time>2021-09-28T14:39:02Z</time>
      </trkpt>
      <trkpt lat="46.48308" lon="-0.43908">
        <ele>92</ele>
        <time>2021-09-28T14:40:13Z</time>
      </trkpt>
      <trkpt lat="46.48281" lon="-0.43866">
        <ele>95</ele>
        <time>2021-09-28T14:40:32Z</time>
      </trkpt>
      <trkpt lat="46.48246" lon="-0.43765">
        <ele>104</ele>
        <time>2021-09-28T14:41:11Z</time>
      </trkpt>
      <trkpt lat="46.4827" lon="-0.4375">
        <ele>105</ele>
        <time>2021-09-28T14:41:24Z</time>
      </trkpt>
      <trkpt lat="46.48314" lon="-0.43737">
        <ele>106</ele>
        <time>2021-09-28T14:41:47Z</time>
      </trkpt>
      <trkpt lat="46.48362" lon="-0.43725">
        <ele>108</ele>
        <time>2021-09-28T14:42:11Z</time>
      </trkpt>
      <trkpt lat="46.48445" lon="-0.43729">
        <ele>110</ele>
        <time>2021-09-28T14:42:53Z</time>
      </trkpt>
      <trkpt lat="46.48466" lon="-0.43697">
        <ele>113</ele>
        <time>2021-09-28T14:43:08Z</time>
      </trkpt>
      <trkpt lat="46.48495" lon="-0.43658">
        <ele>116</ele>
        <time>2021-09-28T14:43:28Z</time>
      </trkpt>
      <trkpt lat="46.48464" lon="-0.43531">
        <ele>119</ele>
        <time>2021-09-28T14:44:14Z</time>
      </trkpt>
      <trkpt lat="46.48446" lon="-0.43405">
        <ele>117</ele>
        <time>2021-09-28T14:44:59Z</time>
      </trkpt>
      <trkpt lat="46.48457" lon="-0.43369">
        <ele>115</ele>
        <time>2021-09-28T14:45:12Z</time>
      </trkpt>
      <trkpt lat="46.48479" lon="-0.43372">
        <ele>114</ele>
        <time>2021-09-28T14:45:23Z</time>
      </trkpt>
      <trkpt lat="46.48503" lon="-0.43314">
        <ele>111</ele>
        <time>2021-09-28T14:45:47Z</time>
      </trkpt>
      <trkpt lat="46.4851" lon="-0.43223">
        <ele>108</ele>
        <time>2021-09-28T14:46:18Z</time>
      </trkpt>
      <trkpt lat="46.48492" lon="-0.43067">
        <ele>103</ele>
        <time>2021-09-28T14:47:13Z</time>
      </trkpt>
      <trkpt lat="46.48501" lon="-0.42957">
        <ele>102</ele>
        <time>2021-09-28T14:47:51Z</time>
      </trkpt>
      <trkpt lat="46.48499" lon="-0.4289">
        <ele>101</ele>
        <time>2021-09-28T14:48:14Z</time>
      </trkpt>
      <trkpt lat="46.48452" lon="-0.42759">
        <ele>95</ele>
        <time>2021-09-28T14:49:05Z</time>
      </trkpt>
      <trkpt lat="46.48424" lon="-0.42714">
        <ele>95</ele>
        <time>2021-09-28T14:49:26Z</time>
      </trkpt>
      <trkpt lat="46.48434" lon="-0.42678">
        <ele>95</ele>
        <time>2021-09-28T14:49:39Z</time>
      </trkpt>
      <trkpt lat="46.48474" lon="-0.42629">
        <ele>96</ele>
        <time>2021-09-28T14:50:05Z</time>
      </trkpt>
      <trkpt lat="46.48461" lon="-0.42558">
        <ele>100</ele>
        <time>2021-09-28T14:50:31Z</time>
      </trkpt>
      <trkpt lat="46.4846" lon="-0.42449">
        <ele>104</ele>
        <time>2021-09-28T14:51:08Z</time>
      </trkpt>
      <trkpt lat="46.48434" lon="-0.42362">
        <ele>108</ele>
        <time>2021-09-28T14:51:41Z</time>
      </trkpt>
      <trkpt lat="46.48399" lon="-0.4227">
        <ele>115</ele>
        <time>2021-09-28T14:52:17Z</time>
      </trkpt>
      <trkpt lat="46.4839" lon="-0.42133">
        <ele>121</ele>
        <time>2021-09-28T14:53:04Z</time>
      </trkpt>
      <trkpt lat="46.48288" lon="-0.42235">
        <ele>118</ele>
        <time>2021-09-28T14:54:06Z</time>
      </trkpt>
      <trkpt lat="46.48234" lon="-0.42259">
        <ele>116</ele>
        <time>2021-09-28T14:54:35Z</time>
      </trkpt>
      <trkpt lat="46.48216" lon="-0.42279">
        <ele>115</ele>
        <time>2021-09-28T14:54:46Z</time>
      </trkpt>
      <trkpt lat="46.48212" lon="-0.42334">
        <ele>114</ele>
        <time>2021-09-28T14:55:05Z</time>
      </trkpt>
      <trkpt lat="46.48154" lon="-0.42485">
        <ele>110</ele>
        <time>2021-09-28T14:56:05Z</time>
      </trkpt>
      <trkpt lat="46.48142" lon="-0.42506">
        <ele>110</ele>
        <time>2021-09-28T14:56:14Z</time>
      </trkpt>
      <trkpt lat="46.48109" lon="-0.42507">
        <ele>110</ele>
        <time>2021-09-28T14:56:31Z</time>
      </trkpt>
      <trkpt lat="46.47996" lon="-0.42469">
        <ele>104</ele>
        <time>2021-09-28T14:57:29Z</time>
      </trkpt>
      <trkpt lat="46.4796" lon="-0.42466">
        <ele>102</ele>
        <time>2021-09-28T14:57:47Z</time>
      </trkpt>
      <trkpt lat="46.47806" lon="-0.42439">
        <ele>91</ele>
        <time>2021-09-28T14:59:04Z</time>
      </trkpt>
      <trkpt lat="46.47831" lon="-0.42371">
        <ele>90</ele>
        <time>2021-09-28T14:59:31Z</time>
      </trkpt>
      <trkpt lat="46.47838" lon="-0.42323">
        <ele>90</ele>
        <time>2021-09-28T14:59:48Z</time>
      </trkpt>
      <trkpt lat="46.47832" lon="-0.42276">
        <ele>90</ele>
        <time>2021-09-28T15:00:04Z</time>
      </trkpt>
      <trkpt lat="46.47753" lon="-0.423">
        <ele>85</ele>
        <time>2021-09-28T15:00:45Z</time>
      </trkpt>
      <trkpt lat="46.47655" lon="-0.42335">
        <ele>82</ele>
        <time>2021-09-28T15:01:35Z</time>
      </trkpt>
      <trkpt lat="46.47626" lon="-0.42336">
        <ele>80</ele>
        <time>2021-09-28T15:01:50Z</time>
      </trkpt>
      <trkpt lat="46.47537" lon="-0.42271">
        <ele>75</ele>
        <time>2021-09-28T15:02:40Z</time>
      </trkpt>
      <trkpt lat="46.47486" lon="-0.42247">
        <ele>72</ele>
        <time>2021-09-28T15:03:06Z</time>
      </trkpt>
      <trkpt lat="46.47451" lon="-0.42255">
        <ele>68</ele>
        <time>2021-09-28T15:03:24Z</time>
      </trkpt>
      <trkpt lat="46.47412" lon="-0.42257">
        <ele>65</ele>
        <time>2021-09-28T15:03:44Z</time>
      </trkpt>
      <trkpt lat="46.47378" lon="-0.42283">
        <ele>66</ele>
        <time>2021-09-28T15:04:03Z</time>
      </trkpt>
      <trkpt lat="46.47335" lon="-0.42314">
        <ele>67</ele>
        <time>2021-09-28T15:04:27Z</time>
      </trkpt>
      <trkpt lat="46.47285" lon="-0.42282">
        <ele>77</ele>
        <time>2021-09-28T15:04:54Z</time>
      </trkpt>
      <trkpt lat="46.47254" lon="-0.42276">
        <ele>83</ele>
        <time>2021-09-28T15:05:10Z</time>
      </trkpt>
      <trkpt lat="46.47225" lon="-0.42292">
        <ele>88</ele>
        <time>2021-09-28T15:05:25Z</time>
      </trkpt>
      <trkpt lat="46.47175" lon="-0.42333">
        <ele>98</ele>
        <time>2021-09-28T15:05:54Z</time>
      </trkpt>
      <trkpt lat="46.47098" lon="-0.42323">
        <ele>99</ele>
        <time>2021-09-28T15:06:33Z</time>
      </trkpt>
      <trkpt lat="46.47084" lon="-0.42397">
        <ele>100</ele>
        <time>2021-09-28T15:06:59Z</time>
      </trkpt>
      <trkpt lat="46.47044" lon="-0.42495">
        <ele>99</ele>
        <time>2021-09-28T15:07:39Z</time>
      </trkpt>
      <trkpt lat="46.46954" lon="-0.42631">
        <ele>96</ele>
        <time>2021-09-28T15:08:44Z</time>
      </trkpt>
      <trkpt lat="46.46921" lon="-0.42664">
        <ele>98</ele>
        <time>2021-09-28T15:09:04Z</time>
      </trkpt>
      <trkpt lat="46.46754" lon="-0.42738">
        <ele>95</ele>
        <time>2021-09-28T15:10:31Z</time>
      </trkpt>
      <trkpt lat="46.4668" lon="-0.42814">
        <ele>85</ele>
        <time>2021-09-28T15:11:16Z</time>
      </trkpt>
      <trkpt lat="46.46625" lon="-0.42903">
        <ele>75</ele>
        <time>2021-09-28T15:11:58Z</time>
      </trkpt>
      <trkpt lat="46.4658" lon="-0.43012">
        <ele>67</ele>
        <time>2021-09-28T15:12:41Z</time>
      </trkpt>
      <trkpt lat="46.46541" lon="-0.4301">
        <ele>64</ele>
        <time>2021-09-28T15:13:01Z</time>
      </trkpt>
      <trkpt lat="46.46507" lon="-0.43055">
        <ele>58</ele>
        <time>2021-09-28T15:13:24Z</time>
      </trkpt>
      <trkpt lat="46.4648" lon="-0.43086">
        <ele>55</ele>
        <time>2021-09-28T15:13:41Z</time>
      </trkpt>
      <trkpt lat="46.46467" lon="-0.43037">
        <ele>59</ele>
        <time>2021-09-28T15:13:59Z</time>
      </trkpt>
      <trkpt lat="46.46466" lon="-0.42912">
        <ele>67</ele>
        <time>2021-09-28T15:14:42Z</time>
      </trkpt>
      <trkpt lat="46.46465" lon="-0.42832">
        <ele>72</ele>
        <time>2021-09-28T15:15:10Z</time>
      </trkpt>
      <trkpt lat="46.46427" lon="-0.42829">
        <ele>75</ele>
        <time>2021-09-28T15:15:29Z</time>
      </trkpt>
      <trkpt lat="46.46331" lon="-0.42752">
        <ele>77</ele>
        <time>2021-09-28T15:16:24Z</time>
      </trkpt>
      <trkpt lat="46.46261" lon="-0.42623">
        <ele>79</ele>
        <time>2021-09-28T15:17:20Z</time>
      </trkpt>
      <trkpt lat="46.46175" lon="-0.42427">
        <ele>81</ele>
        <time>2021-09-28T15:18:41Z</time>
      </trkpt>
      <trkpt lat="46.46155" lon="-0.42399">
        <ele>82</ele>
        <time>2021-09-28T15:18:54Z</time>
      </trkpt>
      <trkpt lat="46.46138" lon="-0.42355">
        <ele>83</ele>
        <time>2021-09-28T15:19:12Z</time>
      </trkpt>
      <trkpt lat="46.46111" lon="-0.42292">
        <ele>85</ele>
        <time>2021-09-28T15:19:37Z</time>
      </trkpt>
      <trkpt lat="46.4607" lon="-0.41932">
        <ele>100</ele>
        <time>2021-09-28T15:21:43Z</time>
      </trkpt>
      <trkpt lat="46.45968" lon="-0.41924">
        <ele>102</ele>
        <time>2021-09-28T15:22:34Z</time>
      </trkpt>
      <trkpt lat="46.45883" lon="-0.41922">
        <ele>104</ele>
        <time>2021-09-28T15:23:17Z</time>
      </trkpt>
      <trkpt lat="46.45844" lon="-0.41934">
        <ele>104</ele>
        <time>2021-09-28T15:23:37Z</time>
      </trkpt>
      <trkpt lat="46.45818" lon="-0.41941">
        <ele>104</ele>
        <time>2021-09-28T15:23:50Z</time>
      </trkpt>
      <trkpt lat="46.45656" lon="-0.42046">
        <ele>102</ele>
        <time>2021-09-28T15:25:19Z</time>
      </trkpt>
      <trkpt lat="46.45556" lon="-0.42139">
        <ele>101</ele>
        <time>2021-09-28T15:26:18Z</time>
      </trkpt>
      <trkpt lat="46.45548" lon="-0.42121">
        <ele>101</ele>
        <time>2021-09-28T15:26:26Z</time>
      </trkpt>
      <trkpt lat="46.45572" lon="-0.42099">
        <ele>102</ele>
        <time>2021-09-28T15:26:40Z</time>
      </trkpt>
      <trkpt lat="46.45568" lon="-0.42072">
        <ele>102</ele>
        <time>2021-09-28T15:26:49Z</time>
      </trkpt>
    </trkseg>
  </trk>
</gpx>